Time;durP1;ratioP1;P1;durP2;ratioP2;P2;SDS_P1;SDS_P2;PMS_P1;PMS_P2;Temp;Humidity;BMP_temperature;BMP_pressure;BME280_temperature;BME280_humidity;BME280_pressure;Samples;Min_cycle;Max_cycle;Signal;HPM_P1;HPM_P2
2021/08/08 00:00:23;;;;;;;2.13;2.03;;;16.00;99.90;;;;;;4994911;28;20586;-81
2021/08/08 00:02:49;;;;;;;2.30;2.20;;;16.00;99.90;;;;;;4978741;28;20631;-81
2021/08/08 00:05:15;;;;;;;2.90;2.20;;;16.00;99.90;;;;;;4996153;28;20497;-81
2021/08/08 00:07:41;;;;;;;1.93;1.83;;;16.10;99.90;;;;;;4995933;28;20209;-81
2021/08/08 00:10:10;;;;;;;2.33;2.13;;;16.20;99.90;;;;;;4978601;28;20648;-81
2021/08/08 00:12:36;;;;;;;2.60;2.17;;;16.20;99.90;;;;;;4995625;28;20410;-81
2021/08/08 00:15:04;;;;;;;2.70;2.17;;;16.30;99.90;;;;;;4995672;28;20426;-81
2021/08/08 00:17:30;;;;;;;3.63;2.23;;;16.30;99.90;;;;;;4995439;28;20464;-81
2021/08/08 00:19:55;;;;;;;2.07;1.87;;;16.30;99.90;;;;;;4995603;28;20438;-81
2021/08/08 00:22:21;;;;;;;5.00;2.17;;;16.30;99.90;;;;;;4995586;28;20171;-81
2021/08/08 00:24:47;;;;;;;2.50;2.30;;;16.30;99.90;;;;;;4995526;28;20581;-81
2021/08/08 00:27:12;;;;;;;1.67;1.60;;;16.30;99.90;;;;;;4978232;28;20639;-81
2021/08/08 00:29:38;;;;;;;2.10;2.00;;;16.30;99.90;;;;;;4978213;28;20195;-81
2021/08/08 00:32:04;;;;;;;1.83;1.73;;;16.30;99.90;;;;;;4995365;28;20202;-81
2021/08/08 00:34:30;;;;;;;2.30;1.90;;;16.20;99.90;;;;;;4995371;28;20205;-81
2021/08/08 00:36:56;;;;;;;1.70;1.60;;;16.20;99.90;;;;;;4995288;28;20498;-81
2021/08/08 00:39:22;;;;;;;2.10;2.00;;;16.20;99.90;;;;;;4995496;28;20613;-81
2021/08/08 00:41:47;;;;;;;2.07;1.97;;;16.20;99.90;;;;;;4995269;28;20182;-81
2021/08/08 00:44:13;;;;;;;2.20;2.10;;;16.20;99.90;;;;;;4977975;28;20321;-81
2021/08/08 00:46:39;;;;;;;4.93;2.20;;;16.10;99.90;;;;;;4995192;28;20187;-81
2021/08/08 00:49:05;;;;;;;2.10;2.00;;;16.10;99.90;;;;;;4977836;28;20203;-81
2021/08/08 00:51:32;;;;;;;1.90;1.80;;;16.10;99.90;;;;;;4977939;28;20186;-81
2021/08/08 00:53:58;;;;;;;1.80;1.70;;;16.00;99.90;;;;;;4994936;28;20203;-81
2021/08/08 00:56:24;;;;;;;1.73;1.63;;;16.00;99.90;;;;;;4977764;28;20906;-81
2021/08/08 00:58:50;;;;;;;3.03;1.63;;;16.00;99.90;;;;;;4994912;28;20505;-81
2021/08/08 01:01:17;;;;;;;2.60;2.00;;;16.00;99.90;;;;;;4994806;28;20453;-80
2021/08/08 01:03:44;;;;;;;1.50;1.40;;;16.00;99.90;;;;;;4994831;28;20254;-81
2021/08/08 01:06:40;;;;;;;2.90;1.70;;;15.90;99.90;;;;;;4994828;28;20402;-81
2021/08/08 01:09:09;;;;;;;4.20;1.70;;;15.80;99.90;;;;;;4994666;28;20446;-81
2021/08/08 01:11:36;;;;;;;3.23;2.23;;;15.80;99.90;;;;;;4994688;28;20473;-81
2021/08/08 01:14:04;;;;;;;1.90;1.80;;;15.70;99.90;;;;;;4994718;28;20493;-81
2021/08/08 01:16:30;;;;;;;1.50;1.40;;;15.60;99.90;;;;;;4994703;28;20407;-81
2021/08/08 01:18:57;;;;;;;1.60;1.50;;;15.60;99.90;;;;;;4977689;28;20411;-81
2021/08/08 01:21:25;;;;;;;2.00;1.90;;;15.50;99.90;;;;;;4977467;28;20916;-81
2021/08/08 01:24:01;;;;;;;2.20;2.10;;;15.50;99.90;;;;;;4994514;28;20406;-81
2021/08/08 01:26:30;;;;;;;1.60;1.50;;;15.50;99.90;;;;;;4994557;28;20430;-81
2021/08/08 01:28:57;;;;;;;4.53;2.07;;;15.50;99.90;;;;;;4977281;28;20464;-81
2021/08/08 01:31:23;;;;;;;2.10;2.00;;;15.50;99.90;;;;;;4994468;28;20942;-80
2021/08/08 01:33:50;;;;;;;2.13;2.03;;;15.60;99.90;;;;;;4994476;28;20713;-81
2021/08/08 01:36:16;;;;;;;2.33;2.23;;;15.60;99.90;;;;;;4994526;28;20489;-81
2021/08/08 01:39:02;;;;;;;1.83;1.73;;;15.60;99.90;;;;;;4977233;28;20795;-81
2021/08/08 01:41:34;;;;;;;2.33;1.77;;;15.60;99.90;;;;;;4977099;28;20419;-81
2021/08/08 01:44:02;;;;;;;2.30;2.10;;;15.60;99.90;;;;;;4994354;28;20469;-81
2021/08/08 01:46:31;;;;;;;3.50;2.17;;;15.50;99.90;;;;;;4994375;28;20422;-81
2021/08/08 01:48:57;;;;;;;1.97;1.87;;;15.50;99.90;;;;;;4994178;28;20446;-81
2021/08/08 01:51:26;;;;;;;1.67;1.57;;;15.40;99.90;;;;;;4994393;28;20429;-81
2021/08/08 01:53:51;;;;;;;2.53;2.10;;;15.40;99.90;;;;;;4994294;28;20449;-81
2021/08/08 01:56:17;;;;;;;2.20;1.87;;;15.30;99.90;;;;;;4994267;28;20403;-81
2021/08/08 01:58:43;;;;;;;2.63;1.83;;;15.30;99.90;;;;;;4994125;28;20625;-81
2021/08/08 02:01:09;;;;;;;2.17;1.97;;;15.20;99.90;;;;;;4994223;28;20557;-81
2021/08/08 02:03:36;;;;;;;2.10;2.00;;;15.20;99.90;;;;;;4995501;28;20171;-81
2021/08/08 02:06:03;;;;;;;2.23;1.90;;;15.10;99.90;;;;;;4994264;28;20176;-81
2021/08/08 02:08:29;;;;;;;3.23;2.33;;;15.00;99.90;;;;;;4994044;28;20453;-81
2021/08/08 02:10:55;;;;;;;2.80;2.17;;;15.00;99.90;;;;;;4976963;28;20403;-81
2021/08/08 02:13:20;;;;;;;1.90;1.80;;;14.90;99.90;;;;;;4994222;28;20242;-81
2021/08/08 02:15:46;;;;;;;2.03;1.93;;;14.90;99.90;;;;;;4994051;28;21019;-81
2021/08/08 02:18:12;;;;;;;2.60;1.90;;;14.80;99.90;;;;;;4994062;28;20663;-81
2021/08/08 02:20:38;;;;;;;2.30;2.10;;;14.80;99.90;;;;;;4976883;28;20407;-81
2021/08/08 02:23:03;;;;;;;2.20;2.00;;;14.70;99.90;;;;;;4976878;28;20187;-81
2021/08/08 02:25:29;;;;;;;1.83;1.73;;;14.70;99.90;;;;;;4997728;28;20171;-81
2021/08/08 02:27:55;;;;;;;1.60;1.60;;;14.70;99.90;;;;;;4980354;28;20202;-81
2021/08/08 02:30:21;;;;;;;3.47;1.83;;;14.60;99.90;;;;;;4997680;28;20163;-81
2021/08/08 02:32:46;;;;;;;2.40;1.87;;;14.60;99.90;;;;;;4997759;28;20623;-81
2021/08/08 02:35:12;;;;;;;2.47;2.27;;;14.50;99.90;;;;;;4997710;28;20253;-81
2021/08/08 02:37:38;;;;;;;2.33;2.10;;;14.40;99.90;;;;;;4997550;28;20247;-81
2021/08/08 02:40:05;;;;;;;3.40;1.80;;;14.40;99.90;;;;;;4997480;28;20583;-81
2021/08/08 02:42:32;;;;;;;1.97;1.87;;;14.40;99.90;;;;;;4998208;28;20495;-81
2021/08/08 02:44:58;;;;;;;2.07;1.97;;;14.40;99.90;;;;;;4997634;28;20406;-81
2021/08/08 02:47:24;;;;;;;2.17;2.07;;;14.30;99.90;;;;;;4997410;28;20816;-81
2021/08/08 02:49:50;;;;;;;3.00;2.37;;;14.20;99.90;;;;;;4997279;28;20541;-81
2021/08/08 02:52:15;;;;;;;2.67;2.40;;;14.20;99.90;;;;;;4997358;28;20869;-81
2021/08/08 02:54:41;;;;;;;5.00;2.20;;;14.20;99.90;;;;;;4997173;28;20214;-81
2021/08/08 02:57:07;;;;;;;2.70;2.27;;;14.10;99.90;;;;;;4997109;28;20233;-81
2021/08/08 02:59:33;;;;;;;1.70;1.60;;;14.10;99.90;;;;;;4996988;28;20190;-81
2021/08/08 03:01:59;;;;;;;2.10;2.00;;;14.10;99.90;;;;;;4997094;28;20278;-81
2021/08/08 03:04:25;;;;;;;2.67;2.47;;;14.10;99.90;;;;;;4997092;28;20411;-81
2021/08/08 03:06:51;;;;;;;2.10;2.00;;;14.10;99.90;;;;;;4997033;28;20468;-81
2021/08/08 03:09:16;;;;;;;2.77;2.57;;;14.10;99.90;;;;;;4996902;28;20191;-81
2021/08/08 03:11:45;;;;;;;5.00;3.07;;;14.20;99.90;;;;;;4996914;28;20176;-81
2021/08/08 03:14:13;;;;;;;3.37;3.00;;;14.20;99.90;;;;;;4997145;28;20190;-81
2021/08/08 03:16:39;;;;;;;3.30;2.83;;;14.40;99.90;;;;;;4996808;28;20758;-81
2021/08/08 03:19:05;;;;;;;2.70;2.27;;;14.40;99.90;;;;;;4996771;28;20411;-81
2021/08/08 03:21:30;;;;;;;4.00;2.70;;;14.60;99.90;;;;;;4979588;28;20476;-81
2021/08/08 03:23:56;;;;;;;7.23;3.67;;;14.60;99.90;;;;;;4996683;28;20189;-81
2021/08/08 03:26:21;;;;;;;2.60;2.50;;;14.70;99.90;;;;;;4996687;28;20229;-81
2021/08/08 03:28:47;;;;;;;2.47;2.27;;;14.70;99.90;;;;;;4996543;28;20192;-80
2021/08/08 03:31:13;;;;;;;2.20;2.10;;;14.80;99.90;;;;;;4979463;28;20182;-81
2021/08/08 03:33:38;;;;;;;3.30;2.67;;;14.70;99.90;;;;;;4996598;28;20255;-81
2021/08/08 03:36:05;;;;;;;2.70;2.50;;;14.80;99.90;;;;;;4996488;28;20250;-81
2021/08/08 03:38:31;;;;;;;5.13;2.40;;;14.80;99.90;;;;;;4996425;28;20163;-81
2021/08/08 03:40:56;;;;;;;2.63;2.43;;;14.80;99.90;;;;;;4979572;28;20896;-81
2021/08/08 03:43:22;;;;;;;4.03;3.13;;;14.80;99.90;;;;;;4996362;28;20182;-81
2021/08/08 03:45:48;;;;;;;2.53;2.30;;;14.90;99.90;;;;;;4996385;28;20180;-81
2021/08/08 03:48:13;;;;;;;2.07;1.97;;;14.80;99.90;;;;;;4996196;28;20201;-81
2021/08/08 03:50:39;;;;;;;7.60;2.47;;;14.90;99.90;;;;;;4996135;28;20237;-81
2021/08/08 03:53:06;;;;;;;2.27;2.17;;;15.00;99.90;;;;;;4979121;28;20175;-81
2021/08/08 03:55:31;;;;;;;2.70;2.50;;;15.00;99.90;;;;;;4979021;28;20446;-81
2021/08/08 03:57:57;;;;;;;3.03;2.17;;;15.00;99.90;;;;;;4996072;28;20634;-81
2021/08/08 04:00:23;;;;;;;2.30;2.10;;;15.00;99.90;;;;;;4978698;28;20570;-81
2021/08/08 04:02:49;;;;;;;3.37;2.00;;;15.00;99.90;;;;;;4978890;28;20197;-81
2021/08/08 04:05:15;;;;;;;3.00;2.77;;;15.00;99.90;;;;;;4995872;28;20497;-81
2021/08/08 04:07:40;;;;;;;2.13;2.03;;;15.00;99.90;;;;;;4978653;28;20269;-81
2021/08/08 04:10:07;;;;;;;2.23;2.13;;;15.00;99.90;;;;;;4995815;28;20202;-81
2021/08/08 04:12:33;;;;;;;1.90;1.80;;;15.10;99.90;;;;;;4978857;28;20176;-81
2021/08/08 04:15:03;;;;;;;1.87;1.77;;;15.10;99.90;;;;;;4995706;28;20460;-81
2021/08/08 04:17:30;;;;;;;3.33;2.63;;;15.20;99.90;;;;;;4995704;28;20166;-81
2021/08/08 04:19:56;;;;;;;2.20;2.00;;;15.20;99.90;;;;;;4995674;28;20410;-81
2021/08/08 04:22:21;;;;;;;2.60;2.27;;;15.40;99.90;;;;;;4978403;28;20477;-81
2021/08/08 04:24:47;;;;;;;3.10;1.70;;;15.30;99.90;;;;;;4995620;28;20175;-81
2021/08/08 04:27:13;;;;;;;2.80;2.30;;;15.40;99.90;;;;;;4995453;28;20175;-82
2021/08/08 04:29:40;;;;;;;5.07;2.20;;;15.30;99.90;;;;;;4995368;28;20191;-81
2021/08/08 04:32:06;;;;;;;2.00;1.90;;;15.40;99.90;;;;;;4995365;28;20935;-81
2021/08/08 04:34:32;;;;;;;3.57;3.03;;;15.40;99.90;;;;;;4995347;28;20485;-81
2021/08/08 04:36:59;;;;;;;2.60;1.83;;;15.40;99.90;;;;;;4995274;28;20860;-82
2021/08/08 04:39:25;;;;;;;2.00;1.53;;;15.40;99.90;;;;;;4995261;28;20433;-81
2021/08/08 04:41:52;;;;;;;1.57;1.47;;;15.40;99.90;;;;;;4978052;28;20884;-81
2021/08/08 04:44:18;;;;;;;1.93;1.73;;;15.40;99.90;;;;;;4995172;28;20411;-81
2021/08/08 04:46:44;;;;;;;1.80;1.70;;;15.40;99.90;;;;;;4994657;28;20419;-82
2021/08/08 04:49:09;;;;;;;1.83;1.73;;;15.40;99.90;;;;;;4995066;28;20453;-81
2021/08/08 04:51:35;;;;;;;2.20;2.10;;;15.40;99.90;;;;;;4995034;28;20179;-81
2021/08/08 04:54:01;;;;;;;2.27;1.67;;;15.40;99.90;;;;;;4995150;28;20175;-81
2021/08/08 04:56:26;;;;;;;3.83;1.90;;;15.50;99.90;;;;;;4977738;28;20178;-81
2021/08/08 04:58:52;;;;;;;2.20;2.00;;;15.60;99.90;;;;;;4977708;28;20569;-81
2021/08/08 05:01:18;;;;;;;2.60;1.70;;;15.60;99.90;;;;;;4994965;28;20553;-81
2021/08/08 05:03:43;;;;;;;1.43;1.40;;;15.60;99.90;;;;;;4994891;28;20171;-81
2021/08/08 05:06:09;;;;;;;3.13;2.40;;;15.60;99.90;;;;;;4994882;28;20261;-81
2021/08/08 05:08:35;;;;;;;3.37;2.20;;;15.60;99.90;;;;;;4977536;28;20671;-81
2021/08/08 05:11:00;;;;;;;1.90;1.70;;;15.70;99.90;;;;;;4994836;28;20659;-82
2021/08/08 05:13:28;;;;;;;1.67;1.57;;;15.70;99.90;;;;;;4994978;28;20619;-81
2021/08/08 05:15:54;;;;;;;1.93;1.83;;;15.80;99.90;;;;;;4994962;28;20196;-81
2021/08/08 05:18:20;;;;;;;3.57;2.10;;;16.00;99.90;;;;;;4994618;28;20422;-81
2021/08/08 05:20:46;;;;;;;2.30;1.97;;;16.20;99.90;;;;;;4994602;28;20891;-82
2021/08/08 05:23:11;;;;;;;2.77;2.57;;;16.20;99.90;;;;;;4994658;28;20167;-82
2021/08/08 05:25:37;;;;;;;3.17;2.53;;;16.10;99.90;;;;;;4994550;28;20167;-82
2021/08/08 05:28:03;;;;;;;2.57;2.47;;;16.00;99.90;;;;;;4977260;28;20265;-82
2021/08/08 05:30:28;;;;;;;2.70;2.50;;;15.90;99.90;;;;;;4994508;28;20250;-82
2021/08/08 05:32:54;;;;;;;2.73;2.53;;;15.90;99.90;;;;;;4994412;28;20197;-82
2021/08/08 05:35:21;;;;;;;2.67;2.30;;;15.80;99.90;;;;;;4977353;28;20168;-83
2021/08/08 05:37:46;;;;;;;2.80;2.60;;;15.70;99.90;;;;;;4994430;28;20246;-82
2021/08/08 05:40:12;;;;;;;2.87;2.67;;;15.70;99.90;;;;;;4994465;28;20410;-82
2021/08/08 05:42:44;;;;;;;2.77;2.50;;;15.60;99.90;;;;;;4994349;28;20172;-83
2021/08/08 05:45:10;;;;;;;2.50;2.30;;;15.60;99.90;;;;;;4994469;28;20152;-82
2021/08/08 05:47:36;;;;;;;3.00;2.70;;;15.60;99.90;;;;;;4994385;28;20433;-82
2021/08/08 05:50:02;;;;;;;3.40;2.50;;;15.70;99.90;;;;;;4994261;28;20450;-82
2021/08/08 05:52:27;;;;;;;2.77;2.57;;;15.70;99.90;;;;;;4977155;28;20182;-83
2021/08/08 05:54:53;;;;;;;3.37;3.10;;;15.80;99.90;;;;;;4977072;28;20178;-82
2021/08/08 05:57:19;;;;;;;2.70;2.60;;;15.90;99.90;;;;;;4994232;28;20199;-82
2021/08/08 05:59:44;;;;;;;2.67;2.47;;;15.80;99.90;;;;;;4996978;28;20182;-82
2021/08/08 06:02:10;;;;;;;2.67;2.47;;;15.80;99.90;;;;;;4981012;28;20628;-83
2021/08/08 06:04:36;;;;;;;3.90;2.77;;;15.80;99.90;;;;;;4998340;28;20760;-83
2021/08/08 06:07:01;;;;;;;2.83;2.67;;;15.80;99.90;;;;;;4980979;28;20266;-82
2021/08/08 06:09:27;;;;;;;2.60;2.40;;;15.70;99.90;;;;;;4998023;28;20187;-82
2021/08/08 06:11:53;;;;;;;2.80;2.70;;;15.70;99.90;;;;;;4981373;28;20191;-82
2021/08/08 06:14:18;;;;;;;2.63;2.53;;;15.70;99.90;;;;;;4980944;28;20172;-82
2021/08/08 06:16:44;;;;;;;3.70;2.80;;;15.70;99.90;;;;;;4980847;28;20171;-82
2021/08/08 06:19:10;;;;;;;4.63;3.23;;;15.70;99.90;;;;;;4998141;28;20506;-82
2021/08/08 06:21:35;;;;;;;3.47;3.17;;;15.80;99.90;;;;;;4997914;28;20605;-83
2021/08/08 06:24:01;;;;;;;2.73;2.53;;;15.90;99.90;;;;;;4980641;28;20172;-82
2021/08/08 06:26:26;;;;;;;2.77;2.53;;;15.90;99.90;;;;;;4980581;28;20621;-82
2021/08/08 06:28:55;;;;;;;2.70;2.60;;;15.80;99.90;;;;;;4980434;28;20210;-83
2021/08/08 06:31:20;;;;;;;3.70;2.93;;;15.80;99.90;;;;;;4997657;28;20156;-83
2021/08/08 06:33:46;;;;;;;3.50;3.30;;;15.80;99.90;;;;;;4980470;28;20422;-83
2021/08/08 06:36:12;;;;;;;2.70;2.60;;;15.80;99.90;;;;;;4997985;28;20617;-82
2021/08/08 06:38:38;;;;;;;3.50;3.27;;;15.80;99.90;;;;;;4997620;28;20612;-82
2021/08/08 06:41:04;;;;;;;3.27;3.07;;;15.80;99.90;;;;;;4997547;28;20171;-82
2021/08/08 06:43:29;;;;;;;4.00;3.70;;;15.90;99.90;;;;;;4997432;28;20888;-83
2021/08/08 06:45:55;;;;;;;4.10;3.80;;;15.90;99.90;;;;;;4997382;28;20172;-82
2021/08/08 06:48:21;;;;;;;4.60;3.87;;;15.90;99.90;;;;;;4980101;28;20201;-82
2021/08/08 06:50:46;;;;;;;4.70;4.30;;;15.90;99.90;;;;;;4997294;28;20159;-83
2021/08/08 06:53:12;;;;;;;4.27;4.00;;;16.00;99.90;;;;;;4997249;28;20183;-83
2021/08/08 06:55:38;;;;;;;3.90;3.70;;;16.00;99.90;;;;;;4980323;28;20163;-83
2021/08/08 06:58:03;;;;;;;4.57;4.30;;;16.00;99.90;;;;;;4997180;28;20266;-82
2021/08/08 07:00:29;;;;;;;4.50;3.57;;;16.10;99.90;;;;;;4979760;28;20183;-82
2021/08/08 07:02:55;;;;;;;4.03;3.83;;;16.10;99.90;;;;;;4996999;28;20183;-82
2021/08/08 07:05:21;;;;;;;4.03;3.73;;;16.20;99.90;;;;;;4997096;28;20177;-82
2021/08/08 07:07:46;;;;;;;5.53;4.60;;;16.20;99.90;;;;;;4997029;28;20163;-83
2021/08/08 07:10:12;;;;;;;4.80;4.40;;;16.20;99.90;;;;;;4996440;28;20199;-83
2021/08/08 07:12:38;;;;;;;4.30;4.10;;;16.30;99.90;;;;;;4996959;28;20195;-82
2021/08/08 07:15:06;;;;;;;4.73;4.43;;;16.20;99.90;;;;;;4996934;28;20168;-82
2021/08/08 07:17:31;;;;;;;4.40;4.20;;;16.30;99.90;;;;;;4996874;28;20464;-82
2021/08/08 07:19:57;;;;;;;4.13;3.93;;;16.30;99.90;;;;;;4996747;28;20456;-83
2021/08/08 07:22:23;;;;;;;3.60;3.40;;;16.20;99.90;;;;;;4996673;28;20202;-82
2021/08/08 07:24:52;;;;;;;4.50;4.20;;;16.20;99.90;;;;;;4996614;28;20597;-82
2021/08/08 07:27:19;;;;;;;4.20;3.93;;;16.30;99.90;;;;;;4979468;28;20245;-82
2021/08/08 07:29:45;;;;;;;4.73;4.43;;;16.20;99.90;;;;;;4996661;28;20447;-82
2021/08/08 07:32:11;;;;;;;4.10;3.80;;;16.10;99.90;;;;;;4979339;28;20915;-83
2021/08/08 07:34:36;;;;;;;4.33;4.13;;;16.10;99.90;;;;;;4996548;28;20507;-83
2021/08/08 07:37:02;;;;;;;5.70;5.20;;;16.10;99.90;;;;;;4979229;28;20179;-82
2021/08/08 07:39:29;;;;;;;6.37;5.80;;;16.10;99.90;;;;;;4979405;28;20536;-82
2021/08/08 07:41:55;;;;;;;5.87;5.37;;;16.10;99.90;;;;;;4996334;28;20628;-82
2021/08/08 07:44:20;;;;;;;6.50;6.00;;;16.00;99.90;;;;;;4996340;28;20419;-82
2021/08/08 07:46:46;;;;;;;7.50;6.33;;;15.90;99.90;;;;;;4979377;28;20446;-82
2021/08/08 07:49:12;;;;;;;6.33;5.73;;;16.00;99.90;;;;;;4996198;28;20205;-82
2021/08/08 07:51:37;;;;;;;7.57;6.87;;;16.00;99.90;;;;;;4996326;28;20167;-82
2021/08/08 07:54:03;;;;;;;6.97;6.47;;;16.00;99.90;;;;;;4996210;28;20171;-82
2021/08/08 07:56:31;;;;;;;7.80;6.73;;;16.00;99.90;;;;;;4978874;28;20185;-82
2021/08/08 07:58:56;;;;;;;5.70;5.20;;;16.00;99.90;;;;;;4995959;28;20205;-82
2021/08/08 08:01:22;;;;;;;6.73;6.23;;;16.10;99.90;;;;;;4979189;28;20892;-82
2021/08/08 08:03:48;;;;;;;7.60;6.80;;;16.20;99.90;;;;;;4996178;28;20199;-82
2021/08/08 08:06:14;;;;;;;7.03;6.30;;;16.30;99.90;;;;;;4995940;28;20164;-82
2021/08/08 08:08:40;;;;;;;7.20;6.50;;;16.30;99.90;;;;;;4995852;28;20187;-82
2021/08/08 08:11:06;;;;;;;6.80;6.30;;;16.40;99.90;;;;;;4995871;28;20410;-82
2021/08/08 08:13:32;;;;;;;9.10;6.70;;;16.30;99.90;;;;;;4995877;28;20762;-82
2021/08/08 08:15:57;;;;;;;7.03;6.43;;;16.40;99.90;;;;;;4995759;28;20167;-82
2021/08/08 08:18:23;;;;;;;8.30;7.00;;;16.40;99.90;;;;;;4995662;28;20163;-82
2021/08/08 08:20:49;;;;;;;7.20;6.60;;;16.40;99.90;;;;;;4995201;28;20237;-82
2021/08/08 08:23:14;;;;;;;7.80;7.10;;;16.40;99.90;;;;;;4995280;28;20164;-82
2021/08/08 08:25:40;;;;;;;5.87;5.43;;;16.50;99.90;;;;;;4995625;28;20513;-82
2021/08/08 08:28:06;;;;;;;7.10;6.60;;;16.50;99.90;;;;;;4995438;28;20228;-82
2021/08/08 08:30:33;;;;;;;7.47;6.47;;;16.50;99.90;;;;;;4995449;28;20168;-82
2021/08/08 08:33:04;;;;;;;7.30;6.63;;;16.50;99.90;;;;;;4995323;28;20168;-82
2021/08/08 08:35:29;;;;;;;9.30;7.97;;;16.50;99.90;;;;;;4995363;28;20406;-82
2021/08/08 08:37:55;;;;;;;7.17;6.63;;;16.50;99.90;;;;;;4978192;28;20911;-82
2021/08/08 08:40:21;;;;;;;10.50;7.13;;;16.50;99.90;;;;;;4995300;28;20557;-82
2021/08/08 08:42:51;;;;;;;9.97;7.47;;;16.60;99.90;;;;;;4995286;28;20182;-82
2021/08/08 08:45:18;;;;;;;8.27;6.97;;;16.60;99.90;;;;;;4978366;28;20620;-82
2021/08/08 08:47:45;;;;;;;8.93;6.60;;;16.50;99.90;;;;;;4995165;28;20706;-82
2021/08/08 08:50:12;;;;;;;10.23;6.60;;;16.40;99.90;;;;;;4995034;28;20468;-82
2021/08/08 08:52:38;;;;;;;7.80;7.00;;;16.40;99.90;;;;;;4995132;28;20406;-82
2021/08/08 08:55:05;;;;;;;6.93;6.33;;;16.50;99.90;;;;;;4995276;28;20453;-82
2021/08/08 08:57:32;;;;;;;7.50;6.70;;;16.50;99.90;;;;;;4977772;28;20450;-82
2021/08/08 09:00:05;;;;;;;12.03;7.43;;;16.50;99.90;;;;;;4977647;28;20445;-82
2021/08/08 09:02:31;;;;;;;8.07;6.90;;;16.50;99.90;;;;;;4977752;28;20442;-82
2021/08/08 09:04:57;;;;;;;10.03;8.20;;;16.40;99.90;;;;;;4977832;28;20476;-82
2021/08/08 09:07:22;;;;;;;7.70;6.83;;;16.30;99.90;;;;;;4977781;28;20179;-82
2021/08/08 09:09:48;;;;;;;13.60;7.70;;;16.30;99.90;;;;;;4994833;28;20509;-82
2021/08/08 09:12:21;;;;;;;8.70;7.80;;;16.40;99.90;;;;;;4994708;28;20167;-82
2021/08/08 09:14:56;;;;;;;9.57;7.40;;;16.50;99.90;;;;;;4994746;28;20183;-82
2021/08/08 09:17:22;;;;;;;10.53;7.30;;;16.50;99.90;;;;;;4994737;28;20716;-82
2021/08/08 09:20:02;;;;;;;12.10;7.17;;;16.70;99.90;;;;;;4994648;28;20416;-82
2021/08/08 09:22:29;;;;;;;7.40;6.43;;;16.70;99.90;;;;;;4994699;28;20398;-82
2021/08/08 09:24:55;;;;;;;8.70;6.80;;;16.70;99.90;;;;;;4994833;28;20406;-82
2021/08/08 09:27:36;;;;;;;12.20;7.07;;;16.70;99.90;;;;;;4994916;28;20549;-82
2021/08/08 09:30:16;;;;;;;7.80;7.07;;;16.80;99.90;;;;;;4994524;28;20446;-82
2021/08/08 09:32:42;;;;;;;7.17;6.47;;;16.80;99.90;;;;;;4977320;28;20945;-82
2021/08/08 09:35:19;;;;;;;7.80;6.80;;;16.80;99.90;;;;;;4977225;28;20434;-82
2021/08/08 09:37:57;;;;;;;9.83;6.60;;;16.80;99.90;;;;;;4994456;28;20480;-82
2021/08/08 09:40:24;;;;;;;10.43;5.80;;;16.70;99.90;;;;;;4994378;28;20473;-82
2021/08/08 09:42:50;;;;;;;8.03;7.10;;;16.70;99.90;;;;;;4994368;28;20438;-82
2021/08/08 09:45:17;;;;;;;15.00;7.00;;;16.70;99.90;;;;;;4977350;28;20767;-82
2021/08/08 09:47:43;;;;;;;7.97;6.00;;;16.80;99.90;;;;;;4994291;28;20791;-82
2021/08/08 09:50:15;;;;;;;9.80;6.40;;;16.80;99.90;;;;;;4994228;28;20500;-81
2021/08/08 09:52:48;;;;;;;10.63;5.90;;;16.70;99.90;;;;;;4994378;28;20522;-81
2021/08/08 09:55:24;;;;;;;10.53;6.50;;;16.70;99.90;;;;;;4977241;28;20431;-82
2021/08/08 09:57:51;;;;;;;11.23;6.70;;;16.70;99.90;;;;;;4994616;28;20449;-81
2021/08/08 10:00:45;;;;;;;8.67;5.77;;;16.60;99.90;;;;;;4994158;28;20422;-81
2021/08/08 10:03:13;;;;;;;9.60;6.40;;;16.70;99.90;;;;;;4981653;28;20433;-81
2021/08/08 10:05:41;;;;;;;15.23;6.73;;;16.80;99.90;;;;;;4994266;28;20406;-81
2021/08/08 10:08:17;;;;;;;9.73;7.33;;;16.80;99.90;;;;;;4977370;28;20469;-81
2021/08/08 10:10:45;;;;;;;7.90;5.73;;;16.80;99.90;;;;;;4977043;28;20497;-81
2021/08/08 10:13:22;;;;;;;6.37;5.07;;;16.90;99.90;;;;;;4994212;28;20476;-81
2021/08/08 10:15:50;;;;;;;6.30;5.70;;;17.00;99.90;;;;;;4994145;28;20540;-81
2021/08/08 10:18:17;;;;;;;8.43;6.10;;;17.00;99.90;;;;;;4994074;28;20406;-81
2021/08/08 10:20:44;;;;;;;7.23;4.87;;;16.90;99.90;;;;;;4976827;28;20406;-81
2021/08/08 10:23:17;;;;;;;8.63;5.97;;;17.00;99.90;;;;;;4994396;28;20983;-81
2021/08/08 10:25:49;;;;;;;10.67;5.80;;;17.10;99.90;;;;;;4993967;28;20440;-81
2021/08/08 10:28:15;;;;;;;7.23;5.53;;;17.20;99.90;;;;;;4976690;28;20497;-81
2021/08/08 10:30:42;;;;;;;10.30;5.60;;;17.40;99.90;;;;;;4994012;28;20747;-81
2021/08/08 10:33:08;;;;;;;7.77;6.27;;;17.60;99.90;;;;;;4993971;28;20406;-81
2021/08/08 10:35:43;;;;;;;6.77;5.60;;;17.70;99.90;;;;;;4994007;28;20425;-81
2021/08/08 10:38:09;;;;;;;5.23;4.77;;;18.00;99.90;;;;;;4994759;28;20500;-81
2021/08/08 10:40:39;;;;;;;6.70;5.00;;;18.20;99.90;;;;;;4994075;28;20415;-81
2021/08/08 10:43:06;;;;;;;5.10;4.60;;;18.70;99.90;;;;;;4976821;28;20418;-81
2021/08/08 10:45:35;;;;;;;7.23;5.07;;;18.90;99.90;;;;;;4996025;28;20919;-81
2021/08/08 10:48:04;;;;;;;5.23;4.00;;;19.10;99.90;;;;;;4997482;28;20481;-81
2021/08/08 10:50:44;;;;;;;7.17;4.70;;;19.10;99.90;;;;;;4997315;28;20936;-81
2021/08/08 10:53:24;;;;;;;7.53;4.87;;;18.90;99.90;;;;;;4997367;28;20403;-81
2021/08/08 10:56:09;;;;;;;5.73;4.80;;;19.00;99.90;;;;;;4980152;28;20406;-81
2021/08/08 10:58:37;;;;;;;8.90;5.60;;;19.20;99.90;;;;;;4980031;28;20441;-82
2021/08/08 11:01:23;;;;;;;7.37;4.70;;;19.40;99.90;;;;;;4997115;28;20435;-81
2021/08/08 11:03:52;;;;;;;8.30;4.60;;;19.50;99.90;;;;;;4996790;28;20974;-81
2021/08/08 11:06:26;;;;;;;5.30;4.73;;;19.50;99.90;;;;;;4979977;28;20423;-81
2021/08/08 11:08:53;;;;;;;7.90;4.73;;;19.40;99.90;;;;;;4997127;28;20528;-81
2021/08/08 11:11:25;;;;;;;5.17;4.10;;;19.30;99.90;;;;;;4979899;28;20411;-81
2021/08/08 11:13:53;;;;;;;5.50;4.90;;;19.00;99.90;;;;;;4996982;28;20398;-81
2021/08/08 11:16:19;;;;;;;4.97;4.60;;;19.00;99.90;;;;;;4996874;28;20435;-81
2021/08/08 11:18:57;;;;;;;6.10;4.97;;;19.30;99.90;;;;;;4979825;28;20449;-81
2021/08/08 11:21:25;;;;;;;8.57;4.30;;;20.00;99.90;;;;;;4979610;28;20175;-81
2021/08/08 11:24:02;;;;;;;7.23;4.20;;;20.10;99.90;;;;;;4996790;28;20914;-82
2021/08/08 11:26:28;;;;;;;7.17;3.80;;;20.30;99.90;;;;;;4979528;28;20407;-81
2021/08/08 11:29:00;;;;;;;4.17;3.87;;;20.30;99.90;;;;;;4979443;28;20446;-81
2021/08/08 11:31:31;;;;;;;3.50;3.20;;;20.30;99.90;;;;;;4996676;28;20426;-82
2021/08/08 11:34:02;;;;;;;7.50;4.27;;;20.40;99.90;;;;;;4996628;28;20391;-82
2021/08/08 11:36:37;;;;;;;3.97;3.50;;;20.70;99.90;;;;;;4979390;28;20759;-82
2021/08/08 11:39:10;;;;;;;5.67;4.30;;;20.80;99.90;;;;;;4979254;28;20418;-82
2021/08/08 11:41:37;;;;;;;6.77;3.90;;;20.60;99.90;;;;;;4996434;28;20787;-82
2021/08/08 11:44:13;;;;;;;5.00;3.30;;;20.60;99.90;;;;;;4996348;28;20477;-82
2021/08/08 11:46:50;;;;;;;6.93;4.10;;;20.40;99.90;;;;;;4996388;28;20397;-81
2021/08/08 11:49:17;;;;;;;3.87;3.47;;;20.20;99.90;;;;;;4996181;28;20442;-82
2021/08/08 11:51:54;;;;;;;6.47;3.80;;;20.00;99.90;;;;;;4979173;28;20429;-82
2021/08/08 11:54:25;;;;;;;7.80;3.67;;;19.80;99.90;;;;;;4979118;28;20770;-82
2021/08/08 11:56:50;;;;;;;3.37;3.07;;;19.80;99.90;;;;;;4994946;28;20689;-82
2021/08/08 11:59:27;;;;;;;6.63;3.60;;;19.90;99.90;;;;;;4995968;28;20418;-82
2021/08/08 12:02:03;;;;;;;3.60;3.20;;;20.00;99.90;;;;;;4978799;28;20163;-81
2021/08/08 12:04:32;;;;;;;5.93;3.90;;;20.10;99.90;;;;;;4996258;28;20398;-82
2021/08/08 12:06:58;;;;;;;6.47;4.10;;;19.80;99.90;;;;;;4978727;28;20406;-82
2021/08/08 12:09:24;;;;;;;5.07;3.73;;;19.80;99.90;;;;;;4995797;28;20446;-82
2021/08/08 12:11:52;;;;;;;5.60;3.83;;;19.80;99.90;;;;;;4995853;28;20398;-82
2021/08/08 12:14:30;;;;;;;5.23;4.30;;;19.90;99.90;;;;;;4995806;28;20171;-82
2021/08/08 12:17:04;;;;;;;6.90;3.87;;;20.00;99.90;;;;;;4978580;28;20418;-82
2021/08/08 12:19:32;;;;;;;3.27;2.70;;;20.30;99.90;;;;;;4995479;28;20406;-82
2021/08/08 12:22:07;;;;;;;6.63;3.17;;;20.60;99.90;;;;;;4978348;28;20417;-81
2021/08/08 12:24:39;;;;;;;7.50;3.47;;;20.30;99.90;;;;;;4978579;28;20413;-82
2021/08/08 12:27:05;;;;;;;8.07;3.87;;;20.30;99.90;;;;;;4995638;28;20399;-82
2021/08/08 12:29:37;;;;;;;8.90;4.57;;;20.50;99.90;;;;;;4995800;28;20438;-82
2021/08/08 12:32:08;;;;;;;5.77;3.10;;;20.60;99.90;;;;;;4978324;28;20959;-82
2021/08/08 12:34:34;;;;;;;5.57;2.90;;;20.40;99.90;;;;;;4978204;28;20407;-82
2021/08/08 12:37:08;;;;;;;13.33;3.47;;;20.20;99.90;;;;;;4995616;28;20422;-82
2021/08/08 12:39:36;;;;;;;4.67;2.77;;;20.10;99.90;;;;;;4995391;28;20158;-82
2021/08/08 12:42:02;;;;;;;3.40;2.97;;;20.10;99.90;;;;;;4995270;28;20418;-82
2021/08/08 12:44:47;;;;;;;7.10;3.30;;;20.10;99.90;;;;;;4995186;28;20414;-81
2021/08/08 12:47:23;;;;;;;6.93;3.37;;;20.30;99.90;;;;;;4995283;28;20482;-82